createdAt,value
2022-10-12T00:01:35.001Z,5.55
2022-10-12T00:04:01.623Z,5.28
2022-10-12T00:06:28.168Z,4.90
2022-10-12T00:08:55.212Z,4.80
2022-10-12T00:11:27.545Z,4.45
2022-10-12T00:13:54.550Z,4.88
2022-10-12T00:16:22.703Z,4.85
2022-10-12T00:18:53.883Z,4.50
2022-10-12T00:21:21.209Z,4.18
2022-10-12T00:23:48.328Z,4.40
2022-10-12T00:26:17.964Z,5.38
2022-10-12T00:28:45.120Z,4.57
2022-10-12T00:31:16.563Z,4.00
2022-10-12T00:33:44.047Z,4.68
2022-10-12T00:36:13.564Z,5.20
2022-10-12T00:38:40.140Z,4.10
2022-10-12T00:41:06.785Z,4.72
2022-10-12T00:43:37.998Z,4.63
2022-10-12T00:46:45.192Z,4.22
2022-10-12T00:49:17.583Z,3.80
2022-10-12T00:51:46.920Z,4.20
2022-10-12T00:54:17.857Z,3.90
2022-10-12T00:56:45.504Z,4.45
2022-10-12T00:59:17.107Z,4.17
2022-10-12T01:01:43.755Z,3.72
2022-10-12T01:04:10.363Z,3.85
2022-10-12T01:06:36.964Z,3.88
2022-10-12T01:09:04.160Z,3.28
2022-10-12T01:11:31.139Z,3.88
2022-10-12T01:13:58.457Z,3.53
2022-10-12T01:16:48.044Z,3.30
2022-10-12T01:19:39.216Z,3.30
2022-10-12T01:22:08.065Z,3.13
2022-10-12T01:24:37.217Z,3.22
2022-10-12T01:27:12.914Z,3.55
2022-10-12T01:29:52.511Z,3.42
2022-10-12T01:32:51.043Z,3.63
2022-10-12T01:35:25.714Z,3.40
2022-10-12T01:38:26.198Z,2.83
2022-10-12T01:40:57.609Z,3.00
2022-10-12T01:43:33.817Z,2.92
2022-10-12T01:46:12.620Z,3.00
2022-10-12T01:48:40.115Z,2.83
2022-10-12T01:51:06.786Z,2.83
2022-10-12T01:53:51.882Z,2.90
2022-10-12T01:56:23.070Z,2.53
2022-10-12T01:59:05.136Z,2.67
2022-10-12T02:01:55.266Z,2.58
2022-10-12T02:04:28.244Z,2.75
2022-10-12T02:07:04.393Z,2.95
2022-10-12T02:09:33.510Z,2.92
2022-10-12T02:12:12.464Z,2.65
2022-10-12T02:14:42.402Z,2.58
2022-10-12T02:17:11.940Z,3.63
2022-10-12T02:19:46.778Z,2.30
2022-10-12T02:22:15.255Z,2.65
2022-10-12T02:27:10.299Z,3.17
2022-10-12T02:29:39.046Z,2.20
2022-10-12T02:32:14.776Z,2.75
2022-10-12T02:34:54.973Z,2.35
2022-10-12T02:37:42.028Z,2.55
2022-10-12T02:40:14.564Z,2.30
2022-10-12T02:43:09.385Z,2.70
2022-10-12T02:45:34.724Z,3.10
2022-10-12T02:48:01.978Z,2.53
2022-10-12T02:50:29.119Z,2.80
2022-10-12T02:52:56.476Z,2.85
2022-10-12T02:55:23.035Z,2.53
2022-10-12T02:57:49.639Z,2.60
2022-10-12T03:00:16.835Z,2.30
2022-10-12T03:02:43.388Z,2.60
2022-10-12T03:05:09.984Z,2.83
2022-10-12T03:07:36.903Z,2.60
2022-10-12T03:10:03.968Z,2.70
2022-10-12T03:12:30.535Z,2.67
2022-10-12T03:14:57.068Z,2.88
2022-10-12T03:17:23.847Z,2.58
2022-10-12T03:19:50.405Z,2.40
2022-10-12T03:22:17.006Z,2.25
2022-10-12T03:24:43.544Z,2.28
2022-10-12T03:27:10.083Z,2.30
2022-10-12T03:29:36.703Z,3.75
2022-10-12T03:32:03.380Z,3.08
2022-10-12T03:34:29.926Z,3.15
2022-10-12T03:36:56.496Z,2.78
2022-10-12T03:39:23.252Z,3.20
2022-10-12T03:41:49.792Z,3.17
2022-10-12T03:44:16.332Z,3.47
2022-10-12T03:46:42.903Z,3.30
2022-10-12T03:49:09.447Z,2.78
2022-10-12T03:51:36.060Z,3.20
2022-10-12T03:54:02.615Z,2.70
2022-10-12T03:56:29.192Z,3.10
2022-10-12T03:58:55.753Z,3.13
2022-10-12T04:01:22.456Z,2.95
2022-10-12T04:03:49.101Z,3.03
2022-10-12T04:06:15.644Z,2.72
2022-10-12T04:08:43.457Z,3.20
2022-10-12T04:11:11.800Z,3.00
2022-10-12T04:13:38.373Z,2.67
2022-10-12T04:16:06.046Z,2.78
2022-10-12T04:18:33.659Z,3.57
2022-10-12T04:21:01.351Z,3.10
2022-10-12T04:23:28.425Z,2.53
2022-10-12T04:25:54.980Z,3.05
2022-10-12T04:28:21.582Z,2.58
2022-10-12T04:30:48.180Z,2.78
2022-10-12T04:33:14.992Z,3.00
2022-10-12T04:35:41.715Z,3.13
2022-10-12T04:38:08.396Z,2.67
2022-10-12T04:40:35.032Z,3.30
2022-10-12T04:43:01.626Z,3.10
2022-10-12T04:45:28.235Z,3.10
2022-10-12T04:47:54.784Z,2.72
2022-10-12T04:50:26.241Z,2.92
2022-10-12T04:52:55.630Z,2.75
2022-10-12T04:55:22.171Z,3.08
2022-10-12T04:57:50.107Z,3.17
2022-10-12T05:00:17.284Z,3.38
2022-10-12T05:02:43.925Z,3.38
2022-10-12T05:05:10.508Z,3.40
2022-10-12T05:07:37.425Z,3.15
2022-10-12T05:10:04.767Z,2.80
2022-10-12T05:12:31.516Z,3.58
2022-10-12T05:14:58.255Z,3.45
2022-10-12T05:17:24.852Z,3.67
2022-10-12T05:19:51.419Z,3.35
2022-10-12T05:22:17.972Z,3.42
2022-10-12T05:24:44.523Z,3.90
2022-10-12T05:27:11.117Z,3.65
2022-10-12T05:29:37.658Z,3.28
2022-10-12T05:32:04.356Z,3.10
2022-10-12T05:34:30.928Z,3.20
2022-10-12T05:36:58.393Z,2.85
2022-10-12T05:39:25.221Z,3.25
2022-10-12T05:41:54.259Z,2.88
2022-10-12T05:44:20.999Z,2.63
2022-10-12T05:46:47.577Z,3.25
2022-10-12T05:49:14.117Z,3.10
2022-10-12T05:51:40.830Z,2.97
2022-10-12T05:54:07.488Z,3.08
2022-10-12T05:56:33.996Z,3.33
2022-10-12T05:59:00.571Z,2.80
2022-10-12T06:01:27.322Z,2.95
2022-10-12T06:03:54.836Z,2.83
2022-10-12T06:06:22.251Z,3.17
2022-10-12T06:08:48.828Z,3.33
2022-10-12T06:11:15.425Z,3.10
2022-10-12T06:13:41.983Z,3.40
2022-10-12T06:16:08.592Z,3.45
2022-10-12T06:18:35.129Z,3.25
2022-10-12T06:21:28.364Z,2.92
2022-10-12T06:23:48.293Z,3.20
2022-10-12T06:26:14.928Z,2.85
2022-10-12T06:28:41.589Z,2.72
2022-10-12T06:31:08.225Z,3.05
2022-10-12T06:33:34.822Z,2.63
2022-10-12T06:36:01.447Z,3.33
2022-10-12T06:38:28.151Z,3.28
2022-10-12T06:40:54.822Z,3.20
2022-10-12T06:43:22.906Z,4.05
2022-10-12T06:45:49.636Z,3.83
2022-10-12T06:48:18.760Z,3.20
2022-10-12T06:50:46.905Z,2.72
2022-10-12T06:53:13.474Z,3.00
2022-10-12T06:55:40.606Z,2.58
2022-10-12T06:58:07.406Z,3.33
2022-10-12T07:00:34.380Z,3.58
2022-10-12T07:03:00.926Z,3.13
2022-10-12T07:05:27.559Z,3.60
2022-10-12T07:07:54.130Z,2.70
2022-10-12T07:10:20.724Z,3.53
2022-10-12T07:12:47.336Z,3.42
2022-10-12T07:15:13.917Z,3.33
2022-10-12T07:17:40.782Z,3.20
2022-10-12T07:20:07.929Z,3.22
2022-10-12T07:22:34.605Z,3.42
2022-10-12T07:25:01.177Z,3.25
2022-10-12T07:27:27.779Z,3.67
2022-10-12T07:29:54.337Z,3.97
2022-10-12T07:32:20.975Z,3.90
2022-10-12T07:34:47.524Z,4.32
2022-10-12T07:37:15.357Z,4.85
2022-10-12T07:39:43.218Z,4.53
2022-10-12T07:42:13.435Z,5.07
2022-10-12T07:44:42.053Z,5.07
2022-10-12T07:47:08.652Z,4.63
2022-10-12T07:49:35.179Z,4.47
2022-10-12T07:52:01.739Z,4.00
2022-10-12T07:54:29.725Z,3.75
2022-10-12T07:56:56.936Z,3.58
2022-10-12T07:59:23.484Z,4.18
2022-10-12T08:01:50.042Z,3.95
2022-10-12T08:04:16.769Z,4.32
2022-10-12T08:06:46.736Z,3.97
2022-10-12T08:09:13.369Z,3.05
2022-10-12T08:11:41.182Z,3.47
2022-10-12T08:14:13.570Z,3.20
2022-10-12T08:16:41.153Z,3.10
2022-10-12T08:19:07.707Z,3.72
2022-10-12T08:21:34.715Z,3.20
2022-10-12T08:24:01.296Z,3.55
2022-10-12T08:26:29.232Z,3.17
2022-10-12T08:28:55.993Z,2.78
2022-10-12T08:31:22.610Z,3.60
2022-10-12T08:33:49.182Z,3.63
2022-10-12T08:36:16.034Z,2.58
2022-10-12T08:38:43.789Z,3.80
2022-10-12T08:41:25.220Z,3.30
2022-10-12T08:44:02.288Z,3.45
2022-10-12T08:46:29.594Z,3.10
2022-10-12T08:49:15.849Z,3.28
2022-10-12T08:52:04.822Z,3.20
2022-10-12T08:54:39.367Z,3.75
2022-10-12T08:57:11.052Z,3.33
2022-10-12T08:59:37.587Z,3.20
2022-10-12T09:02:14.911Z,3.90
2022-10-12T09:05:02.877Z,3.65
2022-10-12T09:07:41.039Z,3.58
2022-10-12T09:10:41.484Z,3.13
2022-10-12T09:13:32.843Z,2.58
2022-10-12T09:16:29.457Z,3.13
2022-10-12T09:18:59.968Z,3.35
2022-10-12T09:21:28.201Z,3.50
2022-10-12T09:23:58.136Z,3.47
2022-10-12T09:26:36.388Z,3.83
2022-10-12T09:29:05.654Z,2.90
2022-10-12T09:31:54.180Z,3.97
2022-10-12T09:34:21.122Z,2.95
2022-10-12T09:36:47.651Z,3.17
2022-10-12T09:39:20.168Z,2.92
2022-10-12T09:41:48.636Z,3.17
2022-10-12T09:44:29.257Z,3.47
2022-10-12T09:46:59.006Z,3.20
2022-10-12T09:50:02.421Z,3.15
2022-10-12T09:52:41.800Z,3.10
2022-10-12T09:55:24.214Z,2.95
2022-10-12T09:57:59.000Z,2.50
2022-10-12T10:00:28.746Z,3.28
2022-10-12T10:02:56.859Z,2.85
2022-10-12T10:05:29.886Z,2.38
2022-10-12T10:08:14.833Z,2.55
2022-10-12T10:10:49.488Z,2.88
2022-10-12T10:13:16.243Z,2.53
2022-10-12T10:15:46.167Z,2.50
2022-10-12T10:18:32.992Z,2.45
2022-10-12T10:21:00.658Z,2.42
2022-10-12T10:23:39.692Z,2.60
2022-10-12T10:26:09.719Z,3.08
2022-10-12T10:28:38.674Z,2.35
2022-10-12T10:31:15.962Z,2.70
2022-10-12T10:33:43.405Z,2.53
2022-10-12T10:36:19.703Z,2.67
2022-10-12T10:38:56.509Z,2.40
2022-10-12T10:41:37.802Z,2.90
2022-10-12T10:44:05.189Z,3.17
2022-10-12T10:46:33.671Z,3.03
2022-10-12T10:49:06.465Z,2.53
2022-10-12T10:51:49.182Z,3.35
2022-10-12T10:54:23.423Z,2.53
2022-10-12T10:56:59.225Z,3.13
2022-10-12T10:59:25.760Z,2.75
2022-10-12T11:01:58.095Z,2.47
2022-10-12T11:04:29.642Z,2.25
2022-10-12T11:07:07.957Z,2.22
2022-10-12T11:09:46.446Z,2.45
2022-10-12T11:12:31.142Z,2.63
2022-10-12T11:15:27.504Z,2.63
2022-10-12T11:18:01.457Z,2.30
2022-10-12T11:20:39.835Z,1.98
2022-10-12T11:23:13.469Z,1.88
2022-10-12T11:25:53.665Z,2.03
2022-10-12T11:28:20.439Z,1.80
2022-10-12T11:30:52.000Z,2.00
2022-10-12T11:33:23.352Z,2.13
2022-10-12T11:35:50.789Z,1.40
2022-10-12T11:38:33.789Z,1.67
2022-10-12T11:41:33.773Z,2.03
2022-10-12T11:44:03.764Z,2.42
2022-10-12T11:47:01.263Z,2.53
2022-10-12T11:49:55.339Z,2.25
2022-10-12T11:52:27.809Z,1.95
2022-10-12T11:55:15.475Z,1.73
2022-10-12T11:57:42.061Z,1.88
2022-10-12T12:00:19.580Z,2.03
2022-10-12T12:02:51.263Z,2.23
2022-10-12T12:05:17.975Z,1.83
2022-10-12T12:07:56.607Z,1.58
2022-10-12T12:10:31.745Z,2.40
2022-10-12T12:13:11.790Z,2.22
2022-10-12T12:15:58.606Z,2.20
2022-10-12T12:18:28.496Z,2.20
2022-10-12T12:21:07.261Z,2.20
2022-10-12T12:23:41.170Z,2.10
2022-10-12T12:26:15.809Z,2.25
2022-10-12T12:28:51.315Z,2.30
2022-10-12T12:31:24.043Z,2.47
2022-10-12T12:34:19.937Z,1.90
2022-10-12T12:36:47.965Z,1.90
2022-10-12T12:39:30.854Z,1.67
2022-10-12T12:42:01.879Z,1.90
2022-10-12T12:44:36.610Z,1.60
2022-10-12T12:47:08.556Z,1.30
2022-10-12T12:50:25.948Z,1.50
2022-10-12T12:52:53.665Z,1.58
2022-10-12T12:55:45.105Z,1.70
2022-10-12T12:58:29.447Z,1.50
2022-10-12T13:01:20.834Z,2.13
2022-10-12T13:04:12.720Z,1.40
2022-10-12T13:07:16.446Z,1.63
2022-10-12T13:10:15.011Z,1.75
2022-10-12T13:12:44.411Z,1.83
2022-10-12T13:15:32.298Z,1.60
2022-10-12T13:18:46.559Z,1.70
2022-10-12T13:21:26.599Z,1.58
2022-10-12T13:24:00.120Z,1.48
2022-10-12T13:26:27.832Z,1.42
2022-10-12T13:28:55.464Z,1.23
2022-10-12T13:31:34.772Z,1.38
2022-10-12T13:34:11.384Z,1.40
2022-10-12T13:36:49.208Z,1.20
2022-10-12T13:39:20.653Z,1.27
2022-10-12T13:41:48.973Z,1.20
2022-10-12T13:44:39.138Z,1.58
2022-10-12T13:47:21.126Z,1.70
2022-10-12T13:49:47.716Z,1.30
2022-10-12T13:52:14.251Z,1.20
2022-10-12T13:54:48.883Z,1.05
2022-10-12T13:57:43.463Z,1.27
2022-10-12T14:00:16.432Z,1.30
2022-10-12T14:02:53.599Z,1.40
2022-10-12T14:05:23.060Z,2.28
2022-10-12T14:07:51.996Z,1.35
2022-10-12T14:10:38.134Z,1.10
2022-10-12T14:13:05.695Z,1.80
2022-10-12T14:15:34.846Z,1.20
2022-10-12T14:18:01.706Z,1.40
2022-10-12T14:20:30.662Z,1.05
2022-10-12T14:22:58.765Z,1.40
2022-10-12T14:25:30.438Z,1.45
2022-10-12T14:28:05.929Z,1.60
2022-10-12T14:30:39.555Z,1.33
2022-10-12T14:33:21.967Z,1.30
2022-10-12T14:35:49.683Z,1.10
2022-10-12T14:38:41.396Z,1.30
2022-10-12T14:41:29.696Z,1.20
2022-10-12T14:44:18.982Z,0.90
2022-10-12T14:46:54.427Z,1.20
2022-10-12T14:49:26.155Z,1.08
2022-10-12T14:51:54.165Z,1.15
2022-10-12T14:54:21.279Z,1.30
2022-10-12T14:56:47.887Z,1.20
2022-10-12T14:59:14.547Z,1.13
2022-10-12T15:01:42.100Z,1.05
2022-10-12T15:04:13.280Z,1.42
2022-10-12T15:06:40.229Z,1.23
2022-10-12T15:09:06.780Z,1.20
2022-10-12T15:11:33.377Z,1.40
2022-10-12T15:13:59.953Z,1.33
2022-10-12T15:16:27.986Z,1.58
2022-10-12T15:18:54.588Z,1.30
2022-10-12T15:21:21.129Z,1.10
2022-10-12T15:23:47.703Z,1.00
2022-10-12T15:26:16.870Z,1.20
2022-10-12T15:28:43.944Z,1.13
2022-10-12T15:31:18.072Z,1.15
2022-10-12T15:33:45.438Z,1.30
2022-10-12T15:36:12.080Z,1.02
2022-10-12T15:38:38.783Z,1.08
2022-10-12T15:41:05.775Z,1.20
2022-10-12T15:43:33.829Z,1.00
2022-10-12T15:46:02.440Z,1.23
2022-10-12T15:48:29.124Z,1.00
2022-10-12T15:50:55.683Z,0.90
2022-10-12T15:53:24.854Z,1.10
2022-10-12T15:55:52.651Z,1.00
2022-10-12T15:58:19.281Z,1.10
2022-10-12T16:00:45.898Z,1.20
2022-10-12T16:03:21.411Z,1.20
2022-10-12T16:05:51.019Z,1.52
2022-10-12T16:08:17.559Z,1.40
2022-10-12T16:10:45.577Z,1.60
2022-10-12T16:13:13.530Z,1.80
2022-10-12T16:15:41.021Z,2.15
2022-10-12T16:18:08.021Z,2.08
2022-10-12T16:20:39.228Z,1.77
2022-10-12T16:23:08.094Z,2.33
2022-10-12T16:25:35.556Z,1.92
2022-10-12T16:28:02.119Z,1.88
2022-10-12T16:30:29.079Z,4.65
2022-10-12T16:32:55.795Z,9.05
2022-10-12T16:35:22.428Z,5.63
2022-10-12T16:37:49.131Z,3.53
2022-10-12T16:40:16.030Z,2.65
2022-10-12T16:42:43.055Z,1.95
2022-10-12T16:45:10.380Z,2.30
2022-10-12T16:47:42.862Z,2.13
2022-10-12T16:50:10.077Z,2.28
2022-10-12T16:52:36.646Z,2.40
2022-10-12T16:55:03.884Z,3.25
2022-10-12T16:57:30.472Z,2.83
2022-10-12T16:59:58.677Z,2.40
2022-10-12T17:02:27.347Z,1.88
2022-10-12T17:04:54.144Z,2.28
2022-10-12T17:07:20.796Z,3.45
2022-10-12T17:09:47.433Z,2.53
2022-10-12T17:12:14.314Z,2.65
2022-10-12T17:14:41.178Z,3.13
2022-10-12T17:17:07.785Z,2.90
2022-10-12T17:19:37.396Z,2.13
2022-10-12T17:22:06.460Z,2.42
2022-10-12T17:24:35.124Z,2.70
2022-10-12T17:27:02.960Z,2.95
2022-10-12T17:29:30.869Z,3.55
2022-10-12T17:31:57.813Z,3.72
2022-10-12T17:34:29.931Z,3.55
2022-10-12T17:36:58.333Z,3.17
2022-10-12T17:39:26.313Z,2.15
2022-10-12T17:41:53.305Z,2.15
2022-10-12T17:44:20.168Z,3.60
2022-10-12T17:46:47.085Z,3.10
2022-10-12T17:49:23.534Z,2.67
2022-10-12T17:51:51.277Z,3.50
2022-10-12T17:54:19.189Z,2.75
2022-10-12T17:56:45.929Z,3.80
2022-10-12T17:59:17.496Z,5.53
2022-10-12T18:01:44.067Z,4.40
2022-10-12T18:04:11.515Z,2.55
2022-10-12T18:06:38.547Z,2.50
2022-10-12T18:09:06.497Z,2.05
2022-10-12T18:11:33.316Z,2.10
2022-10-12T18:13:59.895Z,2.30
2022-10-12T18:16:28.528Z,2.17
2022-10-12T18:21:24.580Z,2.97
2022-10-12T18:23:51.435Z,4.03
2022-10-12T18:26:20.040Z,8.48
2022-10-12T18:31:21.520Z,11.70
2022-10-12T18:33:48.668Z,6.35
2022-10-12T18:36:16.135Z,6.05
2022-10-12T18:38:43.030Z,4.70
2022-10-12T18:41:15.559Z,2.72
2022-10-12T18:43:42.184Z,4.38
2022-10-12T18:46:11.046Z,4.85
2022-10-12T18:48:38.213Z,5.78
2022-10-12T18:51:22.961Z,6.80
2022-10-12T18:53:49.628Z,7.18
2022-10-12T18:56:16.932Z,5.80
2022-10-12T18:58:43.646Z,5.05
2022-10-12T19:01:12.242Z,5.07
2022-10-12T19:06:08.898Z,7.15
2022-10-12T19:08:36.585Z,8.38
2022-10-12T19:11:08.243Z,8.80
2022-10-12T19:13:35.900Z,5.72
2022-10-12T19:16:12.047Z,4.60
2022-10-12T19:18:39.480Z,4.05
2022-10-12T19:21:08.471Z,3.50
2022-10-12T19:23:35.416Z,2.80
2022-10-12T19:26:11.432Z,2.50
2022-10-12T19:28:38.016Z,2.88
2022-10-12T19:31:13.491Z,2.45
2022-10-12T19:33:40.364Z,3.47
2022-10-12T19:36:08.336Z,3.28
2022-10-12T19:38:35.404Z,2.83
2022-10-12T19:41:02.136Z,3.67
2022-10-12T19:43:29.396Z,4.35
2022-10-12T19:45:55.943Z,3.90
2022-10-12T19:48:22.560Z,4.22
2022-10-12T19:50:57.767Z,4.38
2022-10-12T19:53:24.736Z,5.10
2022-10-12T19:55:51.279Z,5.13
2022-10-12T19:58:17.851Z,5.55
2022-10-12T20:00:44.454Z,5.13
2022-10-12T20:03:11.055Z,4.88
2022-10-12T20:05:37.651Z,5.03
2022-10-12T20:08:04.205Z,4.18
2022-10-12T20:10:30.772Z,3.80
2022-10-12T20:12:57.364Z,4.15
2022-10-12T20:15:23.946Z,3.83
2022-10-12T20:17:50.524Z,3.45
2022-10-12T20:20:17.212Z,4.43
2022-10-12T20:22:43.741Z,4.68
2022-10-12T20:25:10.302Z,4.57
2022-10-12T20:27:37.150Z,4.47
2022-10-12T20:30:05.631Z,5.43
2022-10-12T20:32:34.407Z,4.13
2022-10-12T20:35:01.768Z,3.97
2022-10-12T20:37:28.821Z,4.13
2022-10-12T20:39:55.371Z,3.75
2022-10-12T20:42:22.362Z,3.95
2022-10-12T20:44:49.115Z,5.00
2022-10-12T20:47:16.393Z,4.10
2022-10-12T20:49:43.271Z,3.92
2022-10-12T20:52:10.719Z,3.95
2022-10-12T20:54:37.570Z,4.03
2022-10-12T20:57:04.882Z,4.47
2022-10-12T20:59:32.020Z,4.30
2022-10-12T21:01:58.608Z,4.15
2022-10-12T21:04:26.274Z,5.28
2022-10-12T21:06:53.273Z,5.00
2022-10-12T21:09:19.995Z,3.88
2022-10-12T21:11:46.596Z,4.15
2022-10-12T21:14:13.877Z,4.15
2022-10-12T21:16:40.472Z,3.83
2022-10-12T21:19:07.034Z,5.30
2022-10-12T21:21:33.642Z,4.65
2022-10-12T21:24:00.946Z,5.18
2022-10-12T21:26:29.763Z,5.47
2022-10-12T21:28:56.421Z,4.50
2022-10-12T21:31:24.498Z,4.80
2022-10-12T21:33:53.720Z,4.45
2022-10-12T21:36:25.099Z,3.80
2022-10-12T21:38:51.786Z,4.38
2022-10-12T21:41:22.947Z,4.35
2022-10-12T21:43:50.280Z,4.30
2022-10-12T21:46:27.571Z,4.50
2022-10-12T21:48:54.674Z,4.22
2022-10-12T21:51:22.506Z,4.05
2022-10-12T21:53:49.780Z,4.15
2022-10-12T21:56:17.620Z,4.55
2022-10-12T21:58:44.982Z,5.00
2022-10-12T22:01:19.940Z,5.03
2022-10-12T22:03:48.116Z,5.28
2022-10-12T22:06:17.491Z,5.00
2022-10-12T22:08:44.479Z,5.30
2022-10-12T22:11:12.125Z,5.63
2022-10-12T22:13:38.858Z,5.57
2022-10-12T22:16:11.483Z,5.88
2022-10-12T22:18:38.175Z,5.60
2022-10-12T22:21:10.706Z,5.85
2022-10-12T22:23:37.277Z,5.50
2022-10-12T22:26:08.097Z,6.22
2022-10-12T22:28:35.474Z,4.95
2022-10-12T22:31:08.574Z,5.65
2022-10-12T22:33:36.379Z,4.90
2022-10-12T22:36:04.316Z,6.38
2022-10-12T22:38:31.294Z,5.70
2022-10-12T22:40:59.715Z,6.18
2022-10-12T22:43:27.470Z,5.55
2022-10-12T22:45:54.932Z,4.95
2022-10-12T22:48:22.332Z,5.97
2022-10-12T22:50:49.477Z,6.30
2022-10-12T22:53:16.923Z,5.47
2022-10-12T22:55:44.204Z,5.60
2022-10-12T22:58:11.350Z,5.60
2022-10-12T23:00:37.906Z,6.18
2022-10-12T23:03:04.556Z,5.20
2022-10-12T23:05:31.172Z,6.22
2022-10-12T23:07:57.840Z,5.45
2022-10-12T23:10:24.842Z,5.88
2022-10-12T23:12:51.388Z,5.97
2022-10-12T23:15:18.108Z,5.10
2022-10-12T23:17:44.670Z,5.32
2022-10-12T23:20:11.669Z,5.22
2022-10-12T23:22:38.241Z,5.22
2022-10-12T23:25:05.143Z,5.10
2022-10-12T23:27:31.940Z,5.30
2022-10-12T23:29:58.496Z,5.82
2022-10-12T23:32:25.028Z,5.80
2022-10-12T23:34:51.592Z,5.68
2022-10-12T23:37:18.187Z,5.18
2022-10-12T23:39:44.779Z,4.93
2022-10-12T23:42:11.329Z,5.70
2022-10-12T23:44:37.877Z,5.20
2022-10-12T23:47:04.495Z,6.20
2022-10-12T23:49:31.039Z,6.22
2022-10-12T23:51:57.604Z,5.60
2022-10-12T23:54:24.204Z,6.50
2022-10-12T23:56:50.756Z,5.90
2022-10-12T23:59:17.331Z,5.72
